createdAt,value
2022-10-08T00:01:23.755Z,12.95
2022-10-08T00:03:55.120Z,14.45
2022-10-08T00:06:26.074Z,18.13
2022-10-08T00:09:03.901Z,13.05
2022-10-08T00:11:35.485Z,12.13
2022-10-08T00:14:02.859Z,12.63
2022-10-08T00:16:37.247Z,13.07
2022-10-08T00:19:16.126Z,14.50
2022-10-08T00:21:45.463Z,12.60
2022-10-08T00:24:17.859Z,11.98
2022-10-08T00:26:46.364Z,11.52
2022-10-08T00:29:16.165Z,16.35
2022-10-08T00:31:45.956Z,10.70
2022-10-08T00:34:23.316Z,10.73
2022-10-08T00:36:55.843Z,12.38
2022-10-08T00:39:24.933Z,13.25
2022-10-08T00:41:55.170Z,14.65
2022-10-08T00:44:46.915Z,12.57
2022-10-08T00:47:37.756Z,20.25
2022-10-08T00:50:31.298Z,11.05
2022-10-08T00:53:03.622Z,11.00
2022-10-08T00:55:32.076Z,11.68
2022-10-08T00:58:07.547Z,15.75
2022-10-08T01:00:34.599Z,11.45
2022-10-08T01:03:03.750Z,11.40
2022-10-08T01:05:41.743Z,14.43
2022-10-08T01:08:33.504Z,13.68
2022-10-08T01:11:30.378Z,12.32
2022-10-08T01:14:08.137Z,12.52
2022-10-08T01:17:14.358Z,11.00
2022-10-08T01:20:29.369Z,15.20
2022-10-08T01:23:29.931Z,13.02
2022-10-08T01:26:15.197Z,10.18
2022-10-08T01:28:57.347Z,13.73
2022-10-08T01:31:37.555Z,13.77
2022-10-08T01:34:15.910Z,12.77
2022-10-08T01:36:51.640Z,15.10
2022-10-08T01:39:22.257Z,15.02
2022-10-08T01:41:58.723Z,14.57
2022-10-08T01:44:46.457Z,9.95
2022-10-08T01:47:23.906Z,11.30
2022-10-08T01:50:01.522Z,10.00
2022-10-08T01:52:36.761Z,12.43
2022-10-08T01:55:10.522Z,8.57
2022-10-08T01:57:39.493Z,9.05
2022-10-08T02:00:11.548Z,9.98
2022-10-08T02:02:38.982Z,10.18
2022-10-08T02:05:07.035Z,9.80
2022-10-08T02:07:38.948Z,10.27
2022-10-08T02:10:11.563Z,9.17
2022-10-08T02:12:40.246Z,5.85
2022-10-08T02:15:15.270Z,10.77
2022-10-08T02:18:10.260Z,10.55
2022-10-08T02:20:58.961Z,10.20
2022-10-08T02:23:39.893Z,13.77
2022-10-08T02:26:14.985Z,13.48
2022-10-08T02:29:05.600Z,13.32
2022-10-08T02:31:59.817Z,9.95
2022-10-08T02:34:47.419Z,11.60
2022-10-08T02:37:24.999Z,13.27
2022-10-08T02:40:02.296Z,11.15
2022-10-08T02:42:32.908Z,12.93
2022-10-08T02:45:30.924Z,16.02
2022-10-08T02:48:15.122Z,7.65
2022-10-08T02:50:44.709Z,11.85
2022-10-08T02:53:15.373Z,13.38
2022-10-08T02:56:00.666Z,14.05
2022-10-08T02:58:27.634Z,15.32
2022-10-08T03:01:20.260Z,7.22
2022-10-08T03:03:57.287Z,11.18
2022-10-08T03:06:24.828Z,14.43
2022-10-08T03:08:52.596Z,11.90
2022-10-08T03:11:19.826Z,15.43
2022-10-08T03:13:50.715Z,13.30
2022-10-08T03:16:22.433Z,15.30
2022-10-08T03:18:52.088Z,16.73
2022-10-08T03:21:19.422Z,11.95
2022-10-08T03:23:46.271Z,14.05
2022-10-08T03:26:17.282Z,16.75
2022-10-08T03:28:44.099Z,11.88
2022-10-08T03:31:10.978Z,16.45
2022-10-08T03:33:37.953Z,10.07
2022-10-08T03:36:06.470Z,10.02
2022-10-08T03:38:34.880Z,20.08
2022-10-08T03:41:02.683Z,10.32
2022-10-08T03:43:33.279Z,11.52
2022-10-08T03:46:00.650Z,14.98
2022-10-08T03:48:28.031Z,8.63
2022-10-08T03:51:04.678Z,9.57
2022-10-08T03:53:37.386Z,14.32
2022-10-08T03:56:11.853Z,10.68
2022-10-08T03:58:39.165Z,6.82
2022-10-08T04:01:14.868Z,12.27
2022-10-08T04:03:43.006Z,11.40
2022-10-08T04:06:10.221Z,13.23
2022-10-08T04:08:37.233Z,12.13
2022-10-08T04:11:10.601Z,13.25
2022-10-08T04:13:38.034Z,13.95
2022-10-08T04:16:11.613Z,12.13
2022-10-08T04:18:38.982Z,12.98
2022-10-08T04:21:10.720Z,13.23
2022-10-08T04:23:39.614Z,14.75
2022-10-08T04:26:07.571Z,13.95
2022-10-08T04:28:38.843Z,11.13
2022-10-08T04:31:19.646Z,10.93
2022-10-08T04:33:47.454Z,11.63
2022-10-08T04:36:21.705Z,9.93
2022-10-08T04:38:49.934Z,17.52
2022-10-08T04:41:19.852Z,18.83
2022-10-08T04:43:47.406Z,16.38
2022-10-08T04:46:18.184Z,8.85
2022-10-08T04:48:56.430Z,15.00
2022-10-08T04:51:25.725Z,10.73
2022-10-08T04:53:53.426Z,13.52
2022-10-08T04:56:27.446Z,13.82
2022-10-08T04:58:55.510Z,13.15
2022-10-08T05:01:23.589Z,12.15
2022-10-08T05:03:53.341Z,14.85
2022-10-08T05:06:24.239Z,12.73
2022-10-08T05:08:51.630Z,10.00
2022-10-08T05:11:19.190Z,13.88
2022-10-08T05:13:51.392Z,16.70
2022-10-08T05:16:19.091Z,9.40
2022-10-08T05:18:47.644Z,13.13
2022-10-08T05:21:21.509Z,16.52
2022-10-08T05:23:58.654Z,14.35
2022-10-08T05:26:57.021Z,15.40
2022-10-08T05:29:19.836Z,13.82
2022-10-08T05:31:46.838Z,15.57
2022-10-08T05:34:15.234Z,16.55
2022-10-08T05:36:42.421Z,21.30
2022-10-08T05:39:10.533Z,15.43
2022-10-08T05:41:37.759Z,20.88
2022-10-08T05:44:06.234Z,18.33
2022-10-08T05:46:35.962Z,17.92
2022-10-08T05:49:06.037Z,21.20
2022-10-08T05:51:33.353Z,15.82
2022-10-08T05:54:01.175Z,15.82
2022-10-08T05:56:28.856Z,16.75
2022-10-08T05:58:55.913Z,14.73
2022-10-08T06:01:27.958Z,19.35
2022-10-08T06:03:58.704Z,14.27
2022-10-08T06:06:26.057Z,14.48
2022-10-08T06:09:01.987Z,16.23
2022-10-08T06:11:31.181Z,15.82
2022-10-08T06:14:00.230Z,15.50
2022-10-08T06:16:29.072Z,17.40
2022-10-08T06:18:56.302Z,14.82
2022-10-08T06:21:26.293Z,17.88
2022-10-08T06:23:57.257Z,12.98
2022-10-08T06:26:35.207Z,16.25
2022-10-08T06:29:05.654Z,12.38
2022-10-08T06:31:34.783Z,20.17
2022-10-08T06:34:04.229Z,12.55
2022-10-08T06:36:32.709Z,12.90
2022-10-08T06:39:02.953Z,13.82
2022-10-08T06:41:30.561Z,13.00
2022-10-08T06:43:57.648Z,12.80
2022-10-08T06:46:24.696Z,12.43
2022-10-08T06:48:51.732Z,19.05
2022-10-08T06:51:19.480Z,9.95
2022-10-08T06:53:53.795Z,14.02
2022-10-08T06:56:21.326Z,13.68
2022-10-08T06:58:48.553Z,14.43
2022-10-08T07:01:27.884Z,16.55
2022-10-08T07:04:02.528Z,10.95
2022-10-08T07:06:30.008Z,11.98
2022-10-08T07:09:00.530Z,15.80
2022-10-08T07:11:28.342Z,11.35
2022-10-08T07:13:56.080Z,12.27
2022-10-08T07:16:26.116Z,16.17
2022-10-08T07:18:55.241Z,11.57
2022-10-08T07:21:22.892Z,13.30
2022-10-08T07:23:50.784Z,14.02
2022-10-08T07:26:24.339Z,13.73
2022-10-08T07:29:05.371Z,12.35
2022-10-08T07:31:35.851Z,15.95
2022-10-08T07:34:07.011Z,13.18
2022-10-08T07:36:34.273Z,12.05
2022-10-08T07:39:05.897Z,13.00
2022-10-08T07:41:33.352Z,10.57
2022-10-08T07:44:02.307Z,10.30
2022-10-08T07:46:32.442Z,10.77
2022-10-08T07:49:01.506Z,11.65
2022-10-08T07:51:34.252Z,11.48
2022-10-08T07:54:03.201Z,8.40
2022-10-08T07:56:31.437Z,15.55
2022-10-08T07:59:00.303Z,11.55
2022-10-08T08:01:29.842Z,13.40
2022-10-08T08:04:06.192Z,16.85
2022-10-08T08:06:38.083Z,7.78
2022-10-08T08:09:05.018Z,10.18
2022-10-08T08:11:31.883Z,11.93
2022-10-08T08:13:59.044Z,9.57
2022-10-08T08:16:28.621Z,12.48
2022-10-08T08:18:59.583Z,9.77
2022-10-08T08:21:30.732Z,7.75
2022-10-08T08:24:03.856Z,12.23
2022-10-08T08:26:34.144Z,11.63
2022-10-08T08:29:08.096Z,8.50
2022-10-08T08:31:38.747Z,12.70
2022-10-08T08:34:09.092Z,9.13
2022-10-08T08:36:45.044Z,9.68
2022-10-08T08:39:17.377Z,7.20
2022-10-08T08:45:18.878Z,11.88
2022-10-08T08:48:20.698Z,10.67
2022-10-08T08:50:51.053Z,8.73
2022-10-08T08:53:18.932Z,7.30
2022-10-08T08:55:49.767Z,8.63
2022-10-08T08:58:58.813Z,7.65
2022-10-08T09:01:41.661Z,11.48
2022-10-08T09:04:25.380Z,7.88
2022-10-08T09:06:53.574Z,9.95
2022-10-08T09:09:35.761Z,6.28
2022-10-08T09:12:43.670Z,7.38
2022-10-08T09:15:30.461Z,7.93
2022-10-08T09:17:57.653Z,8.88
2022-10-08T09:20:25.727Z,24.58
2022-10-08T09:22:54.300Z,8.27
2022-10-08T09:25:28.222Z,7.05
2022-10-08T09:28:01.496Z,9.30
2022-10-08T09:30:34.740Z,7.65
2022-10-08T09:33:14.139Z,7.47
2022-10-08T09:35:46.488Z,7.60
2022-10-08T09:38:28.736Z,6.97
2022-10-08T09:41:18.882Z,5.40
2022-10-08T09:44:15.891Z,7.25
2022-10-08T09:46:43.348Z,8.32
2022-10-08T09:49:37.783Z,8.40
2022-10-08T09:52:25.959Z,6.18
2022-10-08T09:55:15.482Z,8.48
2022-10-08T09:57:56.183Z,8.23
2022-10-08T10:00:38.069Z,10.13
2022-10-08T10:03:07.474Z,7.63
2022-10-08T10:05:36.396Z,7.97
2022-10-08T10:08:04.131Z,5.90
2022-10-08T10:10:39.179Z,4.75
2022-10-08T10:13:21.571Z,4.13
2022-10-08T10:15:58.705Z,5.18
2022-10-08T10:18:34.074Z,8.38
2022-10-08T10:21:06.435Z,8.23
2022-10-08T10:23:41.639Z,5.85
2022-10-08T10:26:24.691Z,8.23
2022-10-08T10:29:00.288Z,6.40
2022-10-08T10:32:00.646Z,8.43
2022-10-08T10:34:30.618Z,6.65
2022-10-08T10:36:59.332Z,7.50
2022-10-08T10:39:41.222Z,8.85
2022-10-08T10:42:33.201Z,8.07
2022-10-08T10:45:19.624Z,8.00
2022-10-08T10:47:47.819Z,6.30
2022-10-08T10:50:16.946Z,6.18
2022-10-08T10:53:25.014Z,10.18
2022-10-08T10:56:12.666Z,7.32
2022-10-08T10:59:09.279Z,5.30
2022-10-08T11:02:10.596Z,6.50
2022-10-08T11:04:50.602Z,5.35
2022-10-08T11:07:50.035Z,4.00
2022-10-08T11:11:19.779Z,5.38
2022-10-08T11:14:44.509Z,8.40
2022-10-08T11:17:51.058Z,6.00
2022-10-08T11:20:39.517Z,6.63
2022-10-08T11:23:49.020Z,3.83
2022-10-08T11:26:28.413Z,8.68
2022-10-08T11:29:30.642Z,7.45
2022-10-08T11:31:58.589Z,6.23
2022-10-08T11:34:37.017Z,6.68
2022-10-08T11:38:07.001Z,6.97
2022-10-08T11:41:06.491Z,4.78
2022-10-08T11:43:41.693Z,10.05
2022-10-08T11:46:38.115Z,6.93
2022-10-08T11:49:14.105Z,5.95
2022-10-08T11:51:46.170Z,4.60
2022-10-08T11:54:34.885Z,4.65
2022-10-08T11:57:55.446Z,5.13
2022-10-08T12:00:45.479Z,4.20
2022-10-08T12:04:05.068Z,6.05
2022-10-08T12:06:34.606Z,6.03
2022-10-08T12:09:09.937Z,5.15
2022-10-08T12:11:39.391Z,4.55
2022-10-08T12:14:14.517Z,6.25
2022-10-08T12:16:57.005Z,5.63
2022-10-08T12:19:38.550Z,4.32
2022-10-08T12:22:28.174Z,5.13
2022-10-08T12:24:59.274Z,5.97
2022-10-08T12:27:37.801Z,5.45
2022-10-08T12:30:16.662Z,4.25
2022-10-08T12:32:43.669Z,6.50
2022-10-08T12:35:35.845Z,4.65
2022-10-08T12:38:43.000Z,6.82
2022-10-08T12:41:25.391Z,6.88
2022-10-08T12:44:02.089Z,4.68
2022-10-08T12:47:10.841Z,7.30
2022-10-08T12:49:48.523Z,4.95
2022-10-08T12:52:20.059Z,9.25
2022-10-08T12:54:56.989Z,7.13
2022-10-08T12:57:40.726Z,4.22
2022-10-08T13:00:29.176Z,5.43
2022-10-08T13:03:01.935Z,6.30
2022-10-08T13:05:33.708Z,4.35
2022-10-08T13:08:39.360Z,7.10
2022-10-08T13:11:12.874Z,5.82
2022-10-08T13:13:39.780Z,6.82
2022-10-08T13:16:16.414Z,8.63
2022-10-08T13:18:52.921Z,9.07
2022-10-08T13:21:36.972Z,4.82
2022-10-08T13:24:25.462Z,6.00
2022-10-08T13:26:54.816Z,9.52
2022-10-08T13:29:21.930Z,6.15
2022-10-08T13:32:15.090Z,5.35
2022-10-08T13:34:54.232Z,7.93
2022-10-08T13:37:39.440Z,6.93
2022-10-08T13:40:19.672Z,4.18
2022-10-08T13:42:58.888Z,7.05
2022-10-08T13:45:38.477Z,4.57
2022-10-08T13:48:12.095Z,6.35
2022-10-08T13:50:47.772Z,5.55
2022-10-08T13:53:18.152Z,6.63
2022-10-08T13:55:46.882Z,6.22
2022-10-08T13:58:16.747Z,5.68
2022-10-08T14:00:46.282Z,6.30
2022-10-08T14:03:14.203Z,4.55
2022-10-08T14:05:44.778Z,3.90
2022-10-08T14:08:23.870Z,2.85
2022-10-08T14:10:57.479Z,5.47
2022-10-08T14:13:25.358Z,5.28
2022-10-08T14:15:52.463Z,5.18
2022-10-08T14:18:19.367Z,6.00
2022-10-08T14:20:46.268Z,4.63
2022-10-08T14:23:14.198Z,4.53
2022-10-08T14:25:41.252Z,6.75
2022-10-08T14:28:08.342Z,5.32
2022-10-08T14:30:35.184Z,5.93
2022-10-08T14:33:02.477Z,4.18
2022-10-08T14:35:29.387Z,8.07
2022-10-08T14:37:56.218Z,6.03
2022-10-08T14:40:23.622Z,4.25
2022-10-08T14:42:50.878Z,5.97
2022-10-08T14:45:18.209Z,6.30
2022-10-08T14:47:45.090Z,5.30
2022-10-08T14:50:13.435Z,7.68
2022-10-08T14:52:44.354Z,5.50
2022-10-08T14:55:12.276Z,6.35
2022-10-08T14:57:39.212Z,3.30
2022-10-08T15:00:07.324Z,5.63
2022-10-08T15:02:36.814Z,4.35
2022-10-08T15:05:04.018Z,5.70
2022-10-08T15:07:30.952Z,4.75
2022-10-08T15:09:58.530Z,3.67
2022-10-08T15:12:25.425Z,4.32
2022-10-08T15:14:52.405Z,4.68
2022-10-08T15:17:19.255Z,3.88
2022-10-08T15:19:46.739Z,4.82
2022-10-08T15:22:13.685Z,3.75
2022-10-08T15:24:41.366Z,6.47
2022-10-08T15:27:08.195Z,6.72
2022-10-08T15:29:36.194Z,5.82
2022-10-08T15:32:03.204Z,5.30
2022-10-08T15:34:30.143Z,5.40
2022-10-08T15:36:57.050Z,5.93
2022-10-08T15:39:24.422Z,9.43
2022-10-08T15:41:53.189Z,8.32
2022-10-08T15:44:30.689Z,11.00
2022-10-08T15:47:02.693Z,8.00
2022-10-08T15:49:33.860Z,8.68
2022-10-08T15:52:01.734Z,8.77
2022-10-08T15:54:28.679Z,4.68
2022-10-08T15:56:55.616Z,7.85
2022-10-08T15:59:22.504Z,4.03
2022-10-08T16:01:49.451Z,4.82
2022-10-08T16:04:16.325Z,5.90
2022-10-08T16:06:46.624Z,7.25
2022-10-08T16:09:15.790Z,11.70
2022-10-08T16:11:43.813Z,7.78
2022-10-08T16:14:14.645Z,8.27
2022-10-08T16:16:42.387Z,11.05
2022-10-08T16:19:16.662Z,27.65
2022-10-08T16:21:46.257Z,63.97
2022-10-08T16:24:13.643Z,65.90
2022-10-08T16:26:42.390Z,79.32
2022-10-08T16:29:13.048Z,63.17
2022-10-08T16:31:42.085Z,60.55
2022-10-08T16:34:17.423Z,41.53
2022-10-08T16:36:45.947Z,26.10
2022-10-08T16:39:14.387Z,29.90
2022-10-08T16:41:41.809Z,35.22
2022-10-08T16:44:15.086Z,21.88
2022-10-08T16:46:51.360Z,20.80
2022-10-08T16:49:27.973Z,14.07
2022-10-08T16:52:02.347Z,16.73
2022-10-08T16:54:29.737Z,15.40
2022-10-08T16:56:57.499Z,15.43
2022-10-08T16:59:26.752Z,12.40
2022-10-08T17:01:57.198Z,17.50
2022-10-08T17:04:27.660Z,14.07
2022-10-08T17:06:55.149Z,13.07
2022-10-08T17:09:21.974Z,11.63
2022-10-08T17:11:49.564Z,11.07
2022-10-08T17:14:17.208Z,5.90
2022-10-08T17:16:45.749Z,10.52
2022-10-08T17:19:13.580Z,12.63
2022-10-08T17:21:40.590Z,7.70
2022-10-08T17:24:08.478Z,9.32
2022-10-08T17:26:35.604Z,10.98
2022-10-08T17:29:05.595Z,7.93
2022-10-08T17:31:33.631Z,11.23
2022-10-08T17:34:01.216Z,15.55
2022-10-08T17:36:32.118Z,10.20
2022-10-08T17:39:03.016Z,12.40
2022-10-08T17:41:39.778Z,12.13
2022-10-08T17:44:09.156Z,10.75
2022-10-08T17:46:43.799Z,10.35
2022-10-08T17:49:11.859Z,18.88
2022-10-08T17:51:39.220Z,15.38
2022-10-08T17:54:12.114Z,22.13
2022-10-08T17:59:05.875Z,13.73
2022-10-08T18:01:35.991Z,14.30
2022-10-08T18:04:07.172Z,12.82
2022-10-08T18:06:38.404Z,12.82
2022-10-08T18:09:09.335Z,21.58
2022-10-08T18:11:39.326Z,15.07
2022-10-08T18:14:07.326Z,18.98
2022-10-08T18:16:34.855Z,18.75
2022-10-08T18:19:06.298Z,17.95
2022-10-08T18:21:35.626Z,20.13
2022-10-08T18:24:02.422Z,21.88
2022-10-08T18:26:34.472Z,21.55
2022-10-08T18:29:05.964Z,16.90
2022-10-08T18:31:33.585Z,20.30
2022-10-08T18:34:04.862Z,20.55
2022-10-08T18:36:34.539Z,19.52
2022-10-08T18:39:13.511Z,19.25
2022-10-08T18:41:44.043Z,16.83
2022-10-08T18:44:15.561Z,19.33
2022-10-08T18:46:44.693Z,15.48
2022-10-08T18:49:18.042Z,17.30
2022-10-08T18:51:45.704Z,15.57
2022-10-08T18:54:12.634Z,16.48
2022-10-08T18:56:41.158Z,14.20
2022-10-08T18:59:12.838Z,16.73
2022-10-08T19:01:42.431Z,17.23
2022-10-08T19:04:22.227Z,21.38
2022-10-08T19:06:53.593Z,19.92
2022-10-08T19:09:22.169Z,18.90
2022-10-08T19:11:52.812Z,16.63
2022-10-08T19:14:22.268Z,18.40
2022-10-08T19:16:49.767Z,19.23
2022-10-08T19:19:23.412Z,25.52
2022-10-08T19:21:51.955Z,27.83
2022-10-08T19:24:24.697Z,20.42
2022-10-08T19:26:52.003Z,18.73
2022-10-08T19:29:31.934Z,26.48
2022-10-08T19:31:58.738Z,27.38
2022-10-08T19:34:27.970Z,24.55
2022-10-08T19:36:55.397Z,18.92
2022-10-08T19:39:27.007Z,23.38
2022-10-08T19:41:55.022Z,27.63
2022-10-08T19:44:26.159Z,31.42
2022-10-08T19:46:53.671Z,26.80
2022-10-08T19:49:21.447Z,28.45
2022-10-08T19:51:48.518Z,26.55
2022-10-08T19:54:16.786Z,21.23
2022-10-08T19:56:43.819Z,20.30
2022-10-08T19:59:11.869Z,21.00
2022-10-08T20:01:41.297Z,25.48
2022-10-08T20:04:09.510Z,23.75
2022-10-08T20:06:40.484Z,23.10
2022-10-08T20:09:12.128Z,24.05
2022-10-08T20:11:40.497Z,15.23
2022-10-08T20:14:08.081Z,19.48
2022-10-08T20:16:39.548Z,16.80
2022-10-08T20:19:17.494Z,10.55
2022-10-08T20:21:45.392Z,15.48
2022-10-08T20:24:12.584Z,13.52
2022-10-08T20:26:41.758Z,15.50
2022-10-08T20:29:13.169Z,15.57
2022-10-08T20:31:49.852Z,12.27
2022-10-08T20:34:28.548Z,16.15
2022-10-08T20:36:55.442Z,14.00
2022-10-08T20:39:22.894Z,11.55
2022-10-08T20:41:51.567Z,14.05
2022-10-08T20:44:18.730Z,14.38
2022-10-08T20:46:45.741Z,12.40
2022-10-08T20:49:13.850Z,19.80
2022-10-08T20:51:43.415Z,11.68
2022-10-08T20:54:15.882Z,13.35
2022-10-08T20:56:43.322Z,12.73
2022-10-08T20:59:17.846Z,9.10
2022-10-08T21:01:45.451Z,9.27
2022-10-08T21:04:12.538Z,7.45
2022-10-08T21:06:46.151Z,6.38
2022-10-08T21:09:15.213Z,9.68
2022-10-08T21:11:42.488Z,10.95
2022-10-08T21:14:10.160Z,8.75
2022-10-08T21:16:40.140Z,5.90
2022-10-08T21:19:14.500Z,11.85
2022-10-08T21:21:41.651Z,7.50
2022-10-08T21:24:09.325Z,8.90
2022-10-08T21:26:39.569Z,8.38
2022-10-08T21:29:12.122Z,9.98
2022-10-08T21:31:41.253Z,8.30
2022-10-08T21:34:08.356Z,7.30
2022-10-08T21:36:38.665Z,18.77
2022-10-08T21:39:08.236Z,7.68
2022-10-08T21:41:37.812Z,11.23
2022-10-08T21:44:07.643Z,13.13
2022-10-08T21:46:40.883Z,11.98
2022-10-08T21:49:20.647Z,8.00
2022-10-08T21:51:47.965Z,13.90
2022-10-08T21:54:16.208Z,9.80
2022-10-08T21:56:43.536Z,8.52
2022-10-08T21:59:14.833Z,11.45
2022-10-08T22:01:48.462Z,14.75
2022-10-08T22:04:22.595Z,9.15
2022-10-08T22:06:53.277Z,8.43
2022-10-08T22:09:26.840Z,9.95
2022-10-08T22:11:55.395Z,6.32
2022-10-08T22:14:22.595Z,6.82
2022-10-08T22:16:52.031Z,7.22
2022-10-08T22:19:19.619Z,8.27
2022-10-08T22:21:47.152Z,7.10
2022-10-08T22:24:14.128Z,8.15
2022-10-08T22:26:45.186Z,6.72
2022-10-08T22:29:12.845Z,10.30
2022-10-08T22:31:40.143Z,8.70
2022-10-08T22:34:07.152Z,7.03
2022-10-08T22:36:39.494Z,5.90
2022-10-08T22:39:07.232Z,10.95
2022-10-08T22:41:34.490Z,11.43
2022-10-08T22:44:02.830Z,8.05
2022-10-08T22:46:38.596Z,8.43
2022-10-08T22:49:10.383Z,5.70
2022-10-08T22:51:37.952Z,9.38
2022-10-08T22:54:05.428Z,5.22
2022-10-08T22:56:32.342Z,4.53
2022-10-08T22:59:00.608Z,4.20
2022-10-08T23:01:29.295Z,4.50
2022-10-08T23:03:56.163Z,3.80
2022-10-08T23:06:42.301Z,6.88
2022-10-08T23:09:12.640Z,15.65
2022-10-08T23:11:39.548Z,10.88
2022-10-08T23:14:06.960Z,15.80
2022-10-08T23:16:34.648Z,27.73
2022-10-08T23:19:08.528Z,16.20
2022-10-08T23:21:36.486Z,14.10
2022-10-08T23:24:04.145Z,11.05
2022-10-08T23:26:31.127Z,13.90
2022-10-08T23:29:00.289Z,10.30
2022-10-08T23:31:31.109Z,9.93
2022-10-08T23:33:59.065Z,9.18
2022-10-08T23:36:35.838Z,9.88
2022-10-08T23:39:04.599Z,9.98
2022-10-08T23:41:31.454Z,13.43
2022-10-08T23:44:01.334Z,10.48
2022-10-08T23:46:30.533Z,10.15
2022-10-08T23:48:59.166Z,10.70
2022-10-08T23:51:32.143Z,8.98
2022-10-08T23:54:01.139Z,10.57
2022-10-08T23:56:28.451Z,13.38
2022-10-08T23:58:55.284Z,10.95
